Time;durP1;ratioP1;P1;durP2;ratioP2;P2;SDS_P1;SDS_P2;PMS_P1;PMS_P2;Temp;Humidity;BMP_temperature;BMP_pressure;BME280_temperature;BME280_humidity;BME280_pressure;Samples;Min_cycle;Max_cycle;Signal;HPM_P1;HPM_P2
2022/03/29 00:01:10;;;;;;;8.95;8.20;;;14.00;28.80;;;;;;20808;6804;117260;-81
2022/03/29 00:03:36;;;;;;;9.93;9.03;;;14.00;29.20;;;;;;20630;6804;278840;-77
2022/03/29 00:06:04;;;;;;;10.77;8.95;;;14.20;28.90;;;;;;20571;6804;335530;-76
2022/03/29 00:08:29;;;;;;;8.93;8.03;;;14.20;28.90;;;;;;20832;6804;117673;-74
2022/03/29 00:10:55;;;;;;;9.13;8.23;;;14.00;28.90;;;;;;20852;6804;117341;-74
2022/03/29 00:13:20;;;;;;;9.53;8.17;;;13.60;29.10;;;;;;20847;6804;117212;-77
2022/03/29 00:15:46;;;;;;;11.97;9.40;;;13.30;29.40;;;;;;20619;6804;277072;-79
2022/03/29 00:18:13;;;;;;;9.20;8.50;;;13.70;29.70;;;;;;20648;6804;284420;-75
2022/03/29 00:20:38;;;;;;;10.88;9.50;;;13.70;29.70;;;;;;20642;6804;335544;-82
2022/03/29 00:23:05;;;;;;;11.00;9.90;;;13.90;29.30;;;;;;20648;6804;315301;-75
2022/03/29 00:25:29;;;;;;;9.80;8.83;;;14.10;29.20;;;;;;20849;6804;120045;-75
2022/03/29 00:27:55;;;;;;;10.60;9.67;;;13.90;29.20;;;;;;20626;6802;277002;-78
2022/03/29 00:30:22;;;;;;;9.20;8.30;;;13.80;29.30;;;;;;20852;6803;117670;-76
2022/03/29 00:32:48;;;;;;;10.68;9.65;;;13.70;29.40;;;;;;20644;6803;276775;-77
2022/03/29 00:35:13;;;;;;;10.80;9.70;;;13.70;29.40;;;;;;20633;6803;335517;-77
2022/03/29 00:37:39;;;;;;;10.27;8.47;;;14.00;29.30;;;;;;20854;6803;121114;-76
2022/03/29 00:40:06;;;;;;;10.47;9.37;;;13.80;29.30;;;;;;20605;6803;281107;-81
2022/03/29 00:42:32;;;;;;;10.30;8.90;;;13.80;29.30;;;;;;20841;6803;117408;-81
2022/03/29 00:44:58;;;;;;;10.80;9.37;;;13.60;29.20;;;;;;20851;6803;117826;-77
2022/03/29 00:47:23;;;;;;;10.10;9.30;;;13.30;29.40;;;;;;20644;6803;279271;-76
2022/03/29 00:49:49;;;;;;;11.55;9.40;;;13.40;29.60;;;;;;20626;6803;310803;-81
2022/03/29 00:52:14;;;;;;;10.40;9.32;;;13.70;29.60;;;;;;20862;6803;117440;-77
2022/03/29 00:54:43;;;;;;;11.20;10.05;;;13.50;29.50;;;;;;20636;6803;310152;-79
2022/03/29 00:57:11;;;;;;;10.80;9.70;;;13.80;29.40;;;;;;20638;6803;277037;-80
2022/03/29 00:59:35;;;;;;;10.27;9.33;;;13.80;29.40;;;;;;20833;6803;117339;-76
2022/03/29 01:02:00;;;;;;;9.63;8.67;;;13.70;29.40;;;;;;20833;6803;117833;-77
2022/03/29 01:04:26;;;;;;;10.90;9.50;;;13.30;29.50;;;;;;20640;6803;277077;-80
2022/03/29 01:06:51;;;;;;;10.68;9.02;;;13.40;29.60;;;;;;20849;6804;119072;-76
2022/03/29 01:09:17;;;;;;;9.33;8.47;;;13.30;29.60;;;;;;20839;6804;117572;-75
2022/03/29 01:11:43;;;;;;;11.13;9.97;;;13.10;29.80;;;;;;20622;6804;277892;-81
2022/03/29 01:14:08;;;;;;;11.07;10.07;;;13.30;29.80;;;;;;20638;6804;284321;-75
2022/03/29 01:19:19;;;;;;;11.07;10.15;;;13.80;29.20;;;;;;20637;6804;336261;-81
2022/03/29 01:21:48;;;;;;;11.18;10.13;;;13.90;28.90;;;;;;20608;6804;277493;-75
2022/03/29 01:24:14;;;;;;;10.77;9.68;;;13.90;28.90;;;;;;20591;6804;306030;-78
2022/03/29 01:26:39;;;;;;;10.90;9.82;;;14.00;29.00;;;;;;20636;6804;309025;-80
2022/03/29 01:29:06;;;;;;;10.93;9.83;;;14.00;28.90;;;;;;20635;6804;306571;-75
2022/03/29 01:31:31;;;;;;;10.63;9.53;;;13.60;29.10;;;;;;20831;6804;117689;-75
2022/03/29 01:33:57;;;;;;;9.37;8.47;;;13.60;29.10;;;;;;20824;6804;117452;-76
2022/03/29 01:36:22;;;;;;;9.63;8.73;;;13.20;29.60;;;;;;20845;6804;117670;-77
2022/03/29 01:38:48;;;;;;;10.97;9.93;;;12.80;30.00;;;;;;20620;6804;310096;-77
2022/03/29 01:41:14;;;;;;;10.65;9.65;;;13.20;30.00;;;;;;20633;6802;307008;-75
2022/03/29 01:43:40;;;;;;;10.33;9.53;;;13.10;29.90;;;;;;20631;6803;293693;-74
2022/03/29 01:46:12;;;;;;;10.47;9.40;;;13.30;29.70;;;;;;20839;6803;117780;-77
2022/03/29 01:48:32;;;;;;;9.77;8.77;;;13.10;29.90;;;;;;20845;6803;117480;-78
2022/03/29 01:50:59;;;;;;;10.50;9.40;;;12.70;30.80;;;;;;20640;6803;307442;-75
2022/03/29 01:53:24;;;;;;;10.73;9.20;;;12.70;30.70;;;;;;20849;6803;117692;-75
2022/03/29 01:55:56;;;;;;;9.75;8.95;;;12.50;31.30;;;;;;20611;6803;277034;-73
2022/03/29 01:58:21;;;;;;;9.50;8.60;;;12.60;31.20;;;;;;20831;6803;117300;-74
2022/03/29 02:00:47;;;;;;;10.67;9.67;;;12.50;31.10;;;;;;20611;6803;307330;-76
2022/03/29 02:03:12;;;;;;;9.43;8.53;;;12.60;31.50;;;;;;20854;6803;117525;-74
2022/03/29 02:05:38;;;;;;;9.90;8.90;;;12.50;31.30;;;;;;20844;6803;118052;-73
2022/03/29 02:08:04;;;;;;;10.53;9.43;;;12.20;31.40;;;;;;20829;6803;118254;-74
2022/03/29 02:10:29;;;;;;;10.80;9.80;;;12.00;31.70;;;;;;20636;6803;294951;-73
2022/03/29 02:12:55;;;;;;;10.32;9.35;;;12.10;32.10;;;;;;20845;6803;123562;-73
2022/03/29 02:15:20;;;;;;;10.50;9.55;;;12.10;31.90;;;;;;20845;6803;117284;-75
2022/03/29 02:17:48;;;;;;;10.40;9.50;;;11.80;32.00;;;;;;20813;6804;118589;-76
2022/03/29 02:20:13;;;;;;;11.90;10.90;;;11.60;32.20;;;;;;20616;6804;276685;-74
2022/03/29 02:22:37;;;;;;;11.30;10.27;;;11.80;32.60;;;;;;20617;6804;300014;-73
2022/03/29 02:25:03;;;;;;;11.48;10.27;;;12.20;32.10;;;;;;20615;6804;311596;-73
2022/03/29 02:27:28;;;;;;;11.10;10.10;;;12.40;31.70;;;;;;20826;6804;117987;-76
2022/03/29 02:29:54;;;;;;;11.53;10.50;;;12.20;31.60;;;;;;20587;6804;306558;-73
2022/03/29 02:32:19;;;;;;;11.32;10.20;;;12.20;31.80;;;;;;20620;6804;278754;-77
2022/03/29 02:34:45;;;;;;;10.68;9.88;;;12.40;31.60;;;;;;20625;6804;277115;-73
2022/03/29 02:37:14;;;;;;;10.37;9.47;;;12.60;31.30;;;;;;20828;6804;117345;-77
2022/03/29 02:39:39;;;;;;;11.02;10.13;;;12.40;31.40;;;;;;20627;6804;310229;-73
2022/03/29 02:42:06;;;;;;;10.53;9.57;;;12.30;32.10;;;;;;20816;6804;118864;-75
2022/03/29 02:44:31;;;;;;;11.90;10.60;;;12.20;31.90;;;;;;20588;6804;335105;-72
2022/03/29 02:46:58;;;;;;;11.77;10.67;;;12.20;31.80;;;;;;20594;6804;336809;-76
2022/03/29 02:49:25;;;;;;;11.20;9.47;;;12.40;31.50;;;;;;20799;6804;118161;-73
2022/03/29 02:51:50;;;;;;;11.00;9.93;;;11.90;31.80;;;;;;20822;6802;145622;-72
2022/03/29 02:54:16;;;;;;;10.30;9.30;;;11.90;31.80;;;;;;20843;6803;117914;-72
2022/03/29 02:56:41;;;;;;;12.20;10.07;;;11.60;32.20;;;;;;20820;6803;122246;-72
2022/03/29 02:59:07;;;;;;;14.00;9.63;;;11.40;32.50;;;;;;20849;6803;117428;-72
2022/03/29 03:01:33;;;;;;;11.33;10.40;;;11.50;32.70;;;;;;20628;6803;307331;-72
2022/03/29 03:03:59;;;;;;;12.60;11.20;;;11.90;32.10;;;;;;20617;6803;306181;-72
2022/03/29 03:06:25;;;;;;;11.13;10.03;;;11.80;32.00;;;;;;20850;6803;118786;-72
2022/03/29 03:08:50;;;;;;;11.57;10.50;;;11.80;31.90;;;;;;20643;6803;278081;-76
2022/03/29 03:11:16;;;;;;;10.83;9.83;;;11.90;31.70;;;;;;20843;6803;117742;-76
2022/03/29 03:13:42;;;;;;;10.75;9.75;;;11.60;31.50;;;;;;20832;6803;117776;-74
2022/03/29 03:16:08;;;;;;;11.97;10.90;;;11.60;32.00;;;;;;20631;6803;318772;-73
2022/03/29 03:18:33;;;;;;;11.30;10.20;;;11.80;31.90;;;;;;20841;6803;117851;-73
2022/03/29 03:20:59;;;;;;;11.03;10.10;;;11.70;31.80;;;;;;20613;6803;337171;-73
2022/03/29 03:23:25;;;;;;;11.00;9.90;;;11.90;31.90;;;;;;20848;6803;117404;-78
2022/03/29 03:25:50;;;;;;;10.83;9.93;;;11.90;31.80;;;;;;20836;6803;118001;-78
2022/03/29 03:28:16;;;;;;;11.97;10.87;;;11.70;32.00;;;;;;20640;6803;276981;-75
2022/03/29 03:30:41;;;;;;;13.45;10.90;;;11.80;32.00;;;;;;20628;6804;306989;-75
2022/03/29 03:33:07;;;;;;;12.20;11.10;;;12.40;31.90;;;;;;20643;6804;276680;-73
2022/03/29 03:35:33;;;;;;;12.27;11.13;;;12.40;31.80;;;;;;20639;6804;277378;-75
2022/03/29 03:37:59;;;;;;;11.73;10.63;;;12.60;31.00;;;;;;20622;6804;276980;-72
2022/03/29 03:40:24;;;;;;;13.47;10.93;;;12.70;30.80;;;;;;20628;6804;336830;-71
2022/03/29 03:42:50;;;;;;;11.40;10.33;;;12.80;30.50;;;;;;20856;6804;123477;-72
2022/03/29 03:45:16;;;;;;;12.00;11.00;;;12.40;31.20;;;;;;20646;6804;277074;-73
2022/03/29 03:47:43;;;;;;;11.13;9.97;;;12.40;31.10;;;;;;20832;6804;119217;-73
2022/03/29 03:50:09;;;;;;;11.85;10.68;;;12.10;31.30;;;;;;20624;6804;306484;-72
2022/03/29 03:52:35;;;;;;;11.23;10.03;;;12.10;31.70;;;;;;20841;6804;117928;-73
2022/03/29 03:55:00;;;;;;;10.23;9.40;;;11.90;31.80;;;;;;20847;6804;117548;-72
2022/03/29 03:57:26;;;;;;;11.25;10.15;;;11.60;32.20;;;;;;20637;6804;306537;-72
2022/03/29 03:59:55;;;;;;;11.63;10.53;;;11.60;32.90;;;;;;20619;6804;310729;-72
2022/03/29 04:02:18;;;;;;;11.37;10.27;;;11.80;32.40;;;;;;20833;6804;117695;-72
2022/03/29 04:04:43;;;;;;;10.60;9.70;;;11.70;32.30;;;;;;20854;6802;117373;-73
2022/03/29 04:07:09;;;;;;;10.33;9.27;;;11.20;33.00;;;;;;20856;6803;119124;-72
2022/03/29 04:09:35;;;;;;;10.53;9.53;;;11.20;33.00;;;;;;20853;6803;117325;-72
2022/03/29 04:12:04;;;;;;;12.02;10.95;;;11.00;33.30;;;;;;20614;6803;307670;-73
2022/03/29 04:14:29;;;;;;;12.30;11.30;;;11.10;33.60;;;;;;20633;6803;297327;-72
2022/03/29 04:16:55;;;;;;;11.07;10.07;;;11.50;33.20;;;;;;20851;6803;117335;-72
2022/03/29 04:19:21;;;;;;;11.07;10.13;;;11.40;33.00;;;;;;20852;6803;118658;-73
2022/03/29 04:21:46;;;;;;;10.80;9.90;;;11.10;33.20;;;;;;20835;6803;117928;-72
2022/03/29 04:24:12;;;;;;;11.17;10.27;;;10.80;33.50;;;;;;20851;6803;117896;-71
2022/03/29 04:26:37;;;;;;;11.20;10.13;;;10.60;33.70;;;;;;20852;6803;118039;-72
2022/03/29 04:29:04;;;;;;;12.88;11.55;;;10.70;34.70;;;;;;20624;6803;276673;-71
2022/03/29 04:31:29;;;;;;;12.07;10.98;;;10.70;34.70;;;;;;20632;6803;314128;-72
2022/03/29 04:33:58;;;;;;;12.20;11.13;;;11.10;34.20;;;;;;20615;6803;307011;-75
2022/03/29 04:36:23;;;;;;;11.70;10.40;;;11.40;33.60;;;;;;20851;6803;117605;-75
2022/03/29 04:38:48;;;;;;;11.70;10.70;;;11.30;33.50;;;;;;20627;6803;336440;-74
2022/03/29 04:41:15;;;;;;;11.60;10.70;;;11.30;33.50;;;;;;20633;6804;310669;-83
2022/03/29 04:43:41;;;;;;;11.13;10.00;;;11.50;33.30;;;;;;20870;6804;118471;-79
2022/03/29 04:46:07;;;;;;;10.90;10.00;;;11.40;33.30;;;;;;20841;6804;117073;-74
2022/03/29 04:48:32;;;;;;;11.95;9.65;;;11.10;33.50;;;;;;20851;6804;118683;-77
2022/03/29 04:50:57;;;;;;;11.03;10.03;;;10.80;33.80;;;;;;20873;6804;117288;-75
2022/03/29 04:53:24;;;;;;;12.00;9.80;;;10.60;33.90;;;;;;20864;6804;117771;-74
2022/03/29 04:55:50;;;;;;;11.97;10.90;;;10.50;34.20;;;;;;20636;6804;277112;-74
2022/03/29 04:58:15;;;;;;;10.40;9.50;;;10.70;34.50;;;;;;20860;6804;118097;-75
2022/03/29 05:00:41;;;;;;;11.60;10.50;;;10.70;34.30;;;;;;20648;6804;292967;-75
2022/03/29 05:03:06;;;;;;;12.65;11.38;;;10.90;34.60;;;;;;20660;6804;340903;-73
2022/03/29 05:05:32;;;;;;;10.93;9.83;;;11.20;33.90;;;;;;20859;6804;116582;-71
2022/03/29 05:07:57;;;;;;;11.27;10.33;;;11.20;33.70;;;;;;20847;6804;121226;-74
2022/03/29 05:10:24;;;;;;;10.20;9.40;;;10.60;34.10;;;;;;20858;6804;117505;-73
2022/03/29 05:12:51;;;;;;;11.33;10.43;;;10.80;34.60;;;;;;20635;6804;305480;-73
2022/03/29 05:15:16;;;;;;;11.43;10.43;;;10.80;34.60;;;;;;20836;6802;124057;-77
2022/03/29 05:17:42;;;;;;;11.57;10.43;;;10.80;34.20;;;;;;20635;6803;306506;-76
2022/03/29 05:20:07;;;;;;;12.88;11.50;;;11.30;33.80;;;;;;20612;6803;310696;-76
2022/03/29 05:22:33;;;;;;;11.90;10.80;;;11.30;33.70;;;;;;20634;6803;305780;-72
2022/03/29 05:24:59;;;;;;;12.00;10.90;;;11.60;32.90;;;;;;20605;6803;306944;-68
2022/03/29 05:27:24;;;;;;;12.37;11.27;;;11.70;32.60;;;;;;20633;6803;336409;-72
2022/03/29 05:29:50;;;;;;;12.53;11.10;;;11.90;32.50;;;;;;20618;6803;279261;-72
2022/03/29 05:32:18;;;;;;;11.60;10.40;;;12.00;32.50;;;;;;20641;6803;276757;-72
2022/03/29 05:34:41;;;;;;;11.93;10.80;;;12.00;32.70;;;;;;20637;6803;277959;-73
2022/03/29 05:37:08;;;;;;;12.55;11.20;;;12.10;32.30;;;;;;20625;6803;307820;-75
2022/03/29 05:39:33;;;;;;;11.53;10.30;;;12.20;32.40;;;;;;20852;6803;116609;-76
2022/03/29 05:41:59;;;;;;;11.03;9.93;;;11.90;32.70;;;;;;20832;6803;117764;-76
2022/03/29 05:44:24;;;;;;;12.68;11.00;;;11.50;33.20;;;;;;20639;6803;306598;-74
2022/03/29 05:49:36;;;;;;;11.60;9.33;;;11.80;33.60;;;;;;20837;6803;117454;-74
2022/03/29 05:52:03;;;;;;;11.60;10.40;;;11.60;33.30;;;;;;20612;6803;310545;-74
2022/03/29 05:54:30;;;;;;;11.90;10.80;;;11.80;33.40;;;;;;20610;6804;311758;-74
2022/03/29 05:56:54;;;;;;;12.43;11.30;;;12.10;33.10;;;;;;20630;6804;307331;-74
2022/03/29 05:59:21;;;;;;;11.37;9.97;;;12.30;32.50;;;;;;20850;6804;117483;-71
2022/03/29 06:01:46;;;;;;;12.53;11.37;;;12.10;32.60;;;;;;20619;6804;310610;-72
2022/03/29 06:04:13;;;;;;;11.93;10.60;;;11.90;33.00;;;;;;20856;6804;117662;-72
2022/03/29 06:06:41;;;;;;;12.18;10.98;;;12.00;33.90;;;;;;20640;6804;335928;-72
2022/03/29 06:09:05;;;;;;;10.83;9.83;;;12.00;33.00;;;;;;20848;6804;117337;-72
2022/03/29 06:11:30;;;;;;;12.43;11.18;;;11.90;32.90;;;;;;20848;6804;122070;-72
2022/03/29 06:13:56;;;;;;;9.77;8.23;;;11.60;33.20;;;;;;20827;6804;118013;-72
2022/03/29 06:16:21;;;;;;;10.50;9.50;;;11.50;33.70;;;;;;20853;6804;117761;-71
2022/03/29 06:18:47;;;;;;;13.43;9.73;;;11.40;34.20;;;;;;20856;6804;118959;-71
2022/03/29 06:21:12;;;;;;;13.30;10.33;;;11.40;34.10;;;;;;20857;6804;118205;-72
2022/03/29 06:23:39;;;;;;;10.30;9.33;;;11.50;34.80;;;;;;20850;6804;122760;-73
2022/03/29 06:26:04;;;;;;;11.85;10.48;;;11.50;33.50;;;;;;20620;6802;306829;-71
2022/03/29 06:28:30;;;;;;;11.12;10.15;;;12.10;34.20;;;;;;20636;6803;333953;-76
2022/03/29 06:30:56;;;;;;;10.50;9.35;;;13.00;32.90;;;;;;20847;6803;117345;-74
2022/03/29 06:33:21;;;;;;;9.70;8.83;;;13.60;32.50;;;;;;20852;6803;117729;-74
2022/03/29 06:35:47;;;;;;;9.93;9.00;;;13.90;32.10;;;;;;20835;6803;123237;-74
2022/03/29 06:38:13;;;;;;;9.60;8.43;;;14.30;31.80;;;;;;20848;6803;117728;-76
2022/03/29 06:40:39;;;;;;;9.00;8.27;;;14.20;31.70;;;;;;20853;6803;117440;-74
2022/03/29 06:43:04;;;;;;;9.10;8.40;;;14.50;31.60;;;;;;20849;6803;117157;-73
2022/03/29 06:45:31;;;;;;;8.93;8.17;;;14.70;31.40;;;;;;20849;6803;123655;-74
2022/03/29 06:47:58;;;;;;;10.13;9.23;;;14.80;31.10;;;;;;20820;6803;117740;-74
2022/03/29 06:50:22;;;;;;;10.07;9.27;;;14.90;31.00;;;;;;20637;6803;276694;-71
2022/03/29 06:52:48;;;;;;;9.40;8.53;;;15.20;30.00;;;;;;20845;6803;117230;-70
2022/03/29 06:55:13;;;;;;;10.32;9.43;;;15.40;30.00;;;;;;20635;6803;334540;-70
2022/03/29 06:57:40;;;;;;;8.30;7.70;;;15.70;29.50;;;;;;20834;6803;118099;-71
2022/03/29 07:00:06;;;;;;;9.60;8.70;;;15.80;29.70;;;;;;20832;6803;123180;-70
2022/03/29 07:02:32;;;;;;;9.87;9.07;;;15.80;29.60;;;;;;20636;6803;292062;-79
2022/03/29 07:04:59;;;;;;;9.37;8.67;;;16.50;29.00;;;;;;20640;6804;277443;-79
2022/03/29 07:07:24;;;;;;;9.20;8.40;;;16.50;28.70;;;;;;20857;6804;117629;-78
2022/03/29 07:12:48;;;;;;;10.23;9.43;;;16.70;28.30;;;;;;20642;6804;314983;-71
2022/03/29 07:15:13;;;;;;;9.82;9.02;;;17.00;28.10;;;;;;20635;6804;278528;-76
2022/03/29 07:17:39;;;;;;;8.77;8.17;;;17.20;27.90;;;;;;20852;6804;118183;-76
2022/03/29 07:20:06;;;;;;;9.33;8.63;;;17.10;28.10;;;;;;20618;6804;307219;-76
2022/03/29 07:22:32;;;;;;;10.57;9.68;;;17.20;27.90;;;;;;20635;6804;336026;-77
2022/03/29 07:24:57;;;;;;;9.97;9.00;;;17.40;27.80;;;;;;20875;6804;117862;-78
2022/03/29 07:27:24;;;;;;;9.50;8.80;;;17.30;27.80;;;;;;20633;6804;310784;-76
2022/03/29 07:29:50;;;;;;;10.10;8.90;;;17.30;27.80;;;;;;20832;6804;117490;-75
2022/03/29 07:32:15;;;;;;;9.48;8.63;;;17.30;28.00;;;;;;20623;6804;307116;-75
2022/03/29 07:34:43;;;;;;;10.45;9.43;;;17.50;27.90;;;;;;20852;6804;119586;-77
2022/03/29 07:37:08;;;;;;;9.53;8.60;;;17.50;27.90;;;;;;20849;6804;117527;-77
2022/03/29 07:39:34;;;;;;;9.60;8.80;;;17.40;27.90;;;;;;20864;6802;116970;-79
2022/03/29 07:42:01;;;;;;;9.37;8.50;;;17.20;28.00;;;;;;20842;6803;128138;-79
2022/03/29 07:44:26;;;;;;;9.23;8.40;;;17.10;28.20;;;;;;20840;6803;117295;-76
2022/03/29 07:46:53;;;;;;;8.77;8.07;;;17.00;28.30;;;;;;20843;6803;123951;-74
2022/03/29 07:49:18;;;;;;;9.83;9.03;;;17.00;28.30;;;;;;20842;6803;117054;-77
2022/03/29 07:51:44;;;;;;;9.63;8.83;;;16.90;28.40;;;;;;20820;6803;117201;-75
2022/03/29 07:54:09;;;;;;;9.50;8.70;;;16.80;28.50;;;;;;20853;6803;117237;-75
2022/03/29 07:56:35;;;;;;;10.53;9.60;;;16.80;28.50;;;;;;20645;6803;277067;-75
2022/03/29 07:59:00;;;;;;;10.60;9.63;;;17.20;28.30;;;;;;20851;6803;117732;-75
2022/03/29 08:01:28;;;;;;;11.27;10.37;;;17.40;28.30;;;;;;20633;6803;306125;-74
2022/03/29 08:03:52;;;;;;;11.90;10.67;;;17.70;28.10;;;;;;20617;6803;276954;-74
2022/03/29 08:06:17;;;;;;;13.07;11.93;;;18.00;27.70;;;;;;20635;6803;311434;-74
2022/03/29 08:08:43;;;;;;;13.43;11.50;;;18.20;27.50;;;;;;20638;6803;337146;-74
2022/03/29 08:11:08;;;;;;;14.03;11.60;;;18.30;27.50;;;;;;20636;6803;276695;-74
2022/03/29 08:13:34;;;;;;;12.40;11.10;;;18.30;27.40;;;;;;20640;6803;281564;-74
2022/03/29 08:16:01;;;;;;;12.77;11.47;;;18.30;27.50;;;;;;20619;6804;310968;-74
2022/03/29 08:18:25;;;;;;;13.10;11.75;;;18.30;27.80;;;;;;20627;6804;310671;-74
2022/03/29 08:20:50;;;;;;;12.35;11.27;;;18.20;27.80;;;;;;20626;6804;307725;-74
2022/03/29 08:23:17;;;;;;;12.70;11.50;;;18.10;28.20;;;;;;20640;6804;276711;-74
2022/03/29 08:25:43;;;;;;;12.73;11.53;;;18.10;27.60;;;;;;20622;6804;307893;-75
2022/03/29 08:28:09;;;;;;;13.00;11.70;;;18.10;27.50;;;;;;20629;6804;305201;-74
2022/03/29 08:30:36;;;;;;;15.03;11.17;;;18.10;27.40;;;;;;20843;6804;117333;-74
2022/03/29 08:33:02;;;;;;;12.48;11.18;;;17.80;27.70;;;;;;20632;6804;311375;-74
2022/03/29 08:35:26;;;;;;;12.23;11.00;;;17.70;27.80;;;;;;20844;6804;123342;-74
2022/03/29 08:37:52;;;;;;;10.77;9.67;;;17.10;28.20;;;;;;20832;6804;118118;-74
2022/03/29 08:40:21;;;;;;;11.95;10.80;;;17.00;28.10;;;;;;20640;6804;277152;-74
2022/03/29 08:42:44;;;;;;;11.98;10.10;;;17.10;28.10;;;;;;20850;6804;117948;-74
2022/03/29 08:45:10;;;;;;;10.50;9.53;;;17.00;28.10;;;;;;20853;6804;117972;-74
2022/03/29 08:47:35;;;;;;;14.30;11.17;;;16.70;28.30;;;;;;20634;6804;282828;-74
2022/03/29 08:50:01;;;;;;;12.30;10.83;;;16.80;28.50;;;;;;20619;6802;310607;-74
2022/03/29 08:52:27;;;;;;;11.60;10.10;;;17.10;28.00;;;;;;20845;6803;117523;-74
2022/03/29 08:54:53;;;;;;;11.67;9.63;;;16.80;28.10;;;;;;20849;6803;118314;-74
2022/03/29 08:57:19;;;;;;;12.30;9.80;;;16.80;28.10;;;;;;20853;6803;120539;-74
2022/03/29 08:59:44;;;;;;;11.47;9.80;;;16.50;28.50;;;;;;20835;6803;117280;-74
2022/03/29 09:02:13;;;;;;;10.17;9.13;;;16.50;28.50;;;;;;20852;6803;118566;-75
2022/03/29 09:04:39;;;;;;;18.80;10.00;;;16.60;28.70;;;;;;20846;6803;122109;-74
2022/03/29 09:07:06;;;;;;;10.33;9.33;;;16.70;29.10;;;;;;20851;6803;121116;-74
2022/03/29 09:09:33;;;;;;;11.63;9.70;;;16.70;28.50;;;;;;20836;6803;117382;-74
2022/03/29 09:12:13;;;;;;;13.37;9.57;;;16.70;28.60;;;;;;20820;6803;141192;-74
2022/03/29 09:14:37;;;;;;;13.25;10.75;;;16.80;28.60;;;;;;20625;6803;290879;-77
2022/03/29 09:17:03;;;;;;;11.27;9.87;;;17.20;28.00;;;;;;20803;6803;117874;-74
2022/03/29 09:19:29;;;;;;;11.70;10.60;;;17.70;27.70;;;;;;20556;6803;306075;-74
2022/03/29 09:21:55;;;;;;;10.60;9.70;;;17.60;27.60;;;;;;20765;6803;141017;-75
2022/03/29 09:24:20;;;;;;;12.00;10.73;;;17.80;27.70;;;;;;20636;6803;306438;-75
2022/03/29 09:26:46;;;;;;;11.27;10.23;;;18.10;27.60;;;;;;20633;6803;306553;-74
2022/03/29 09:29:15;;;;;;;13.67;9.47;;;18.50;27.10;;;;;;20852;6804;117478;-74
2022/03/29 09:31:41;;;;;;;15.17;9.60;;;18.50;27.40;;;;;;20847;6804;117339;-75
2022/03/29 09:34:17;;;;;;;11.55;10.35;;;18.40;27.30;;;;;;20624;6804;306080;-70
2022/03/29 09:36:48;;;;;;;11.88;10.25;;;19.00;26.80;;;;;;20641;6804;277078;-71
2022/03/29 09:39:45;;;;;;;11.52;10.32;;;19.00;26.80;;;;;;20625;6804;277078;-73
2022/03/29 09:42:09;;;;;;;11.43;10.33;;;19.40;26.70;;;;;;20635;6804;307331;-73
2022/03/29 09:44:42;;;;;;;17.00;10.05;;;19.70;26.40;;;;;;20844;6804;117530;-72
2022/03/29 09:47:09;;;;;;;11.07;10.20;;;19.70;26.40;;;;;;20610;6804;307089;-74
2022/03/29 09:49:52;;;;;;;10.27;9.27;;;19.80;26.60;;;;;;20845;6804;117448;-73
2022/03/29 09:52:16;;;;;;;9.50;8.63;;;19.70;26.50;;;;;;20836;6804;117527;-75
2022/03/29 09:54:41;;;;;;;9.57;8.63;;;19.60;26.70;;;;;;20841;6804;122994;-71
2022/03/29 09:57:07;;;;;;;10.43;8.77;;;19.60;26.70;;;;;;20845;6804;123470;-74
2022/03/29 09:59:32;;;;;;;10.45;9.40;;;19.50;26.10;;;;;;20637;6804;277880;-73
2022/03/29 10:01:58;;;;;;;10.30;9.38;;;19.70;25.30;;;;;;20607;6802;307961;-74
2022/03/29 10:04:23;;;;;;;10.87;9.90;;;20.10;24.90;;;;;;20630;6803;308392;-72
2022/03/29 10:06:49;;;;;;;10.03;8.83;;;20.40;25.00;;;;;;20842;6803;117243;-74
2022/03/29 10:09:27;;;;;;;10.23;9.23;;;20.40;25.30;;;;;;20628;6803;306962;-72
2022/03/29 10:11:59;;;;;;;10.43;9.13;;;20.60;25.20;;;;;;20835;6803;117870;-73
2022/03/29 10:14:25;;;;;;;10.27;9.23;;;20.60;25.20;;;;;;20637;6803;277423;-73
2022/03/29 10:16:54;;;;;;;10.27;8.73;;;21.50;25.50;;;;;;20634;6803;290158;-73
2022/03/29 10:19:19;;;;;;;8.57;7.77;;;21.40;25.30;;;;;;20858;6803;117286;-73
2022/03/29 10:21:45;;;;;;;9.27;8.37;;;21.60;24.90;;;;;;20837;6803;118141;-73
2022/03/29 10:24:13;;;;;;;9.63;8.07;;;21.50;25.20;;;;;;20646;6803;277087;-74
2022/03/29 10:26:43;;;;;;;8.70;8.03;;;21.70;25.20;;;;;;20850;6803;117534;-74
2022/03/29 10:29:08;;;;;;;9.77;8.67;;;21.80;25.00;;;;;;20848;6803;117560;-73
2022/03/29 10:31:36;;;;;;;10.57;9.20;;;21.60;22.90;;;;;;20636;6803;339644;-74
2022/03/29 10:34:10;;;;;;;14.07;8.50;;;21.60;22.90;;;;;;20773;6803;117227;-74
2022/03/29 10:36:35;;;;;;;9.67;8.63;;;21.50;23.40;;;;;;20828;6803;117119;-74
2022/03/29 10:39:00;;;;;;;9.23;8.53;;;21.30;23.60;;;;;;20761;6804;117322;-74
2022/03/29 10:41:26;;;;;;;9.63;8.73;;;21.20;23.70;;;;;;20831;6804;117480;-75
2022/03/29 10:43:53;;;;;;;9.75;8.75;;;21.20;23.80;;;;;;20624;6804;311468;-75
2022/03/29 10:46:25;;;;;;;9.40;8.60;;;21.40;23.70;;;;;;20750;6803;114662;-75
2022/03/29 10:49:20;;;;;;;9.60;8.77;;;21.50;23.10;;;;;;20783;6804;117500;-75
2022/03/29 10:51:43;;;;;;;10.00;9.13;;;21.40;23.30;;;;;;19469;7175;320677;-75
2022/03/29 10:54:28;;;;;;;9.18;8.43;;;21.70;22.60;;;;;;19671;7192;120513;-72
2022/03/29 10:57:00;;;;;;;9.20;8.50;;;21.70;23.00;;;;;;19756;6817;278046;-74
2022/03/29 10:59:25;;;;;;;16.23;9.67;;;21.90;23.20;;;;;;20579;6817;317634;-74
2022/03/29 11:02:08;;;;;;;8.90;7.63;;;22.20;22.70;;;;;;20732;6802;117449;-80
2022/03/29 11:04:33;;;;;;;10.02;9.02;;;22.20;23.00;;;;;;20640;6802;311493;-77
2022/03/29 11:07:11;;;;;;;9.38;8.48;;;22.30;22.40;;;;;;20893;6802;117322;-81
2022/03/29 11:09:35;;;;;;;9.53;8.67;;;22.30;22.70;;;;;;20855;6802;117098;-78
2022/03/29 11:12:01;;;;;;;9.50;8.60;;;22.00;22.90;;;;;;20858;6802;117628;-76
2022/03/29 11:14:31;;;;;;;9.57;8.77;;;21.90;23.00;;;;;;20647;6800;277020;-82
2022/03/29 11:16:56;;;;;;;9.13;8.30;;;22.10;23.00;;;;;;20839;6801;119567;-77
2022/03/29 11:19:37;;;;;;;9.20;8.30;;;22.20;22.90;;;;;;20717;6816;117501;-73
2022/03/29 11:22:23;;;;;;;9.90;9.00;;;22.20;23.10;;;;;;20566;6809;307988;-78
2022/03/29 11:24:48;;;;;;;9.40;8.50;;;22.50;22.20;;;;;;20829;6809;118190;-76
2022/03/29 11:27:26;;;;;;;9.37;8.50;;;22.70;22.10;;;;;;20590;6809;350593;-76
2022/03/29 11:29:50;;;;;;;9.30;8.50;;;22.70;22.10;;;;;;20802;6809;123918;-77
2022/03/29 11:32:17;;;;;;;9.47;8.67;;;22.70;22.10;;;;;;20821;6809;114671;-80
2022/03/29 11:34:41;;;;;;;9.75;8.80;;;22.50;22.40;;;;;;20575;6809;279075;-81
2022/03/29 11:37:07;;;;;;;8.68;7.87;;;22.60;21.80;;;;;;20812;6809;117531;-80
2022/03/29 11:39:34;;;;;;;10.67;8.50;;;22.60;22.10;;;;;;20842;6809;117136;-80
2022/03/29 11:41:59;;;;;;;10.00;8.80;;;22.50;22.40;;;;;;20834;6809;117628;-81
2022/03/29 11:44:25;;;;;;;10.23;9.13;;;22.30;22.00;;;;;;20867;6809;117415;-80
2022/03/29 11:46:53;;;;;;;10.95;8.30;;;22.10;21.70;;;;;;20854;6809;121635;-80
2022/03/29 11:49:19;;;;;;;9.73;8.90;;;21.90;21.50;;;;;;20870;6809;116539;-79
2022/03/29 11:52:02;;;;;;;9.68;8.73;;;21.60;21.70;;;;;;20860;6809;116741;-81
2022/03/29 11:54:27;;;;;;;11.53;8.40;;;21.60;21.40;;;;;;20877;6809;117637;-79
2022/03/29 11:56:53;;;;;;;10.13;8.13;;;21.40;21.60;;;;;;20679;6809;338338;-81
2022/03/29 11:59:21;;;;;;;8.73;8.02;;;21.80;22.10;;;;;;20839;6809;117475;-79
2022/03/29 12:01:47;;;;;;;9.43;8.70;;;21.80;21.50;;;;;;20587;6809;307067;-80
2022/03/29 12:04:12;;;;;;;8.80;8.15;;;22.00;21.20;;;;;;20633;6809;278272;-80
2022/03/29 12:06:47;;;;;;;10.30;9.50;;;22.30;20.60;;;;;;20632;6809;276656;-80
2022/03/29 12:09:16;;;;;;;9.55;8.75;;;22.70;20.50;;;;;;20616;6809;340816;-81
2022/03/29 12:11:44;;;;;;;9.70;8.80;;;22.60;20.40;;;;;;20807;6809;116163;-83
2022/03/29 12:14:10;;;;;;;9.63;8.73;;;22.60;21.10;;;;;;20835;6809;117364;-80
2022/03/29 12:16:39;;;;;;;9.07;8.23;;;22.30;21.40;;;;;;20819;6809;117140;-82
2022/03/29 12:19:08;;;;;;;9.27;8.33;;;22.00;21.30;;;;;;20827;6809;118323;-79
2022/03/29 12:21:33;;;;;;;9.47;8.77;;;21.80;21.50;;;;;;20615;6809;311718;-80
2022/03/29 12:24:06;;;;;;;9.90;8.97;;;22.00;21.30;;;;;;20609;6807;277133;-79
2022/03/29 12:26:31;;;;;;;9.77;8.88;;;22.30;21.40;;;;;;20617;6808;336520;-80
2022/03/29 12:28:57;;;;;;;8.97;8.13;;;22.60;21.90;;;;;;20835;6809;117280;-80
2022/03/29 12:31:24;;;;;;;9.82;8.77;;;22.60;21.80;;;;;;20617;6809;307526;-80